MST,Max TemperatureF,Mean TemperatureF,Min TemperatureF,Max Dew PointF,MeanDew PointF,Min DewpointF,Max Humidity, Mean Humidity, Min Humidity, Max Sea Level PressureIn, Mean Sea Level PressureIn, Min Sea Level PressureIn, Max VisibilityMiles, Mean VisibilityMiles, Min VisibilityMiles, Max Wind SpeedMPH, Mean Wind SpeedMPH, Max Gust SpeedMPH,PrecipitationIn, CloudCover, Events, WindDirDegrees
2011-12-1,34,28,21,20,17,13,84,66,47,30.79,30.63,30.25,10,10,10,8,2,10,0.00,2,,99
2011-12-2,35,28,20,21,17,13,88,65,41,30.40,30.24,30.10,10,10,10,16,5,22,0.00,6,,334
2011-12-3,28,21,14,22,16,10,88,76,63,30.43,30.39,30.25,10,10,9,7,1,7,T,6,,131
2011-12-4,29,18,6,25,19,2,92,66,39,30.70,30.42,30.24,10,5,1,21,4,24,0.15,7,Snow,147
2011-12-5,20,11,2,12,5,0,91,76,61,30.73,30.62,30.39,10,10,4,5,0,5,0.00,5,,120
2011-12-6,31,23,15,20,14,10,84,69,53,30.54,30.43,30.27,10,10,9,5,1,6,0.00,5,,283
2011-12-7,34,24,13,23,18,12,92,78,64,30.42,30.36,30.27,10,9,7,5,1,6,0.00,3,,359
2011-12-8,31,21,11,22,15,9,92,81,69,30.46,30.36,30.23,10,7,1,8,1,9,0.00,2,,360
2011-12-9,34,24,14,19,15,11,84,68,51,30.56,30.49,30.29,10,10,10,6,1,7,0.00,2,,130
2011-12-10,30,19,8,20,11,4,100,84,68,30.48,30.29,30.14,10,4,0,5,1,6,0.00,2,Fog,45
2011-12-11,32,22,12,20,15,9,92,78,63,30.14,30.08,29.97,10,10,8,13,1,22,0.00,1,,308
2011-12-12,35,27,19,22,19,16,88,70,52,30.22,30.14,30.05,10,10,9,13,3,17,0.00,5,,1
2011-12-13,29,26,22,21,18,15,81,72,63,30.17,30.11,29.99,10,10,10,10,3,13,0.00,7,,150
2011-12-14,35,30,24,24,22,19,88,75,61,30.23,30.18,30.00,10,10,9,7,0,8,T,8,Snow,285
2011-12-15,32,29,26,27,25,23,92,82,72,30.47,30.27,30.09,10,8,4,8,1,10,T,8,Snow,71
2011-12-16,35,30,25,28,27,25,100,85,70,30.55,30.49,30.37,10,8,4,5,0,6,T,8,,255
2011-12-17,44,34,23,30,26,21,92,76,60,30.53,30.38,30.19,10,9,7,6,1,7,0.00,2,,320
2011-12-18,34,25,16,30,20,12,92,87,81,30.27,30.09,30.02,10,4,0,7,1,8,T,5,Fog,283
2011-12-19,39,30,21,29,22,18,85,67,48,30.43,30.37,30.25,10,10,10,9,3,12,0.00,2,,342
2011-12-20,33,25,17,26,20,15,92,84,75,30.36,30.16,29.92,10,9,1,9,2,12,0.01,6,Snow,242
2011-12-21,32,26,19,28,25,17,92,82,72,30.57,30.13,29.91,10,4,1,14,6,17,0.09,8,Snow,327
2011-12-22,22,14,6,18,10,1,92,84,76,30.68,30.55,30.44,10,4,0,6,0,7,0.00,6,Fog,52
2011-12-23,18,12,5,13,5,1,92,84,76,30.76,30.57,30.47,10,3,0,8,1,9,T,6,Fog-Snow,293
2011-12-24,28,18,8,23,16,7,88,81,74,30.75,30.70,30.56,10,8,2,7,1,7,0.01,7,Snow,231
2011-12-25,41,28,14,30,22,14,100,73,45,30.65,30.27,30.04,10,3,0,28,2,36,T,6,Fog-Snow,274
2011-12-26,35,28,21,30,24,16,92,82,72,30.39,30.30,30.12,10,10,9,12,2,16,0.01,6,Snow,324
2011-12-27,42,33,24,30,25,21,88,76,64,30.29,30.18,29.99,10,10,10,13,2,20,T,7,,348
2011-12-28,46,40,34,37,35,29,100,85,70,29.95,29.90,29.72,10,10,8,13,6,20,0.06,8,Rain,141
2011-12-29,46,40,33,37,28,22,92,69,45,30.04,29.87,29.64,10,10,9,33,11,44,0.06,6,Rain,255
2011-12-30,40,36,31,36,32,28,100,85,69,29.85,29.70,29.60,10,8,1,24,6,32,0.18,8,Rain-Snow,59
2011-12-31,35,28,20,28,19,14,85,64,43,30.58,30.31,29.79,10,10,3,23,6,30,T,5,Snow,285